Private Wetterstation Sandau
Wetterdaten: Montag, 14.05.2012
Datum Zeit Temp. A. Feuchte A. Luftdruck Regen Wind Richtung Richtung Taupunkt Windchill
14.05.2012 00:01 10,3 C 59 % 1027,2 hPa 0,0 l/m 1,4 km/h (1 Bft) S 180 2,6 C 10,3 C
14.05.2012 00:06 10,3 C 59 % 1027,3 hPa 0,0 l/m 1,4 km/h (1 Bft) SO 135 2,6 C 10,3 C
14.05.2012 00:11 10,2 C 60 % 1027,3 hPa 0,0 l/m 2,5 km/h (1 Bft) S-SO 157 2,8 C 10,2 C
14.05.2012 00:16 10,1 C 60 % 1027,2 hPa 0,0 l/m 1,4 km/h (1 Bft) SO 135 2,7 C 10,1 C
14.05.2012 00:21 10,1 C 60 % 1027,1 hPa 0,0 l/m 2,9 km/h (1 Bft) S-SO 157 2,7 C 10,1 C
14.05.2012 00:26 10,0 C 60 % 1027,1 hPa 0,0 l/m 2,5 km/h (1 Bft) SO 135 2,6 C 10,0 C
14.05.2012 00:31 9,9 C 61 % 1026,8 hPa 0,0 l/m 3,2 km/h (1 Bft) S-SO 157 2,7 C 9,9 C
14.05.2012 00:36 9,8 C 61 % 1026,9 hPa 0,0 l/m 2,2 km/h (1 Bft) S-SO 157 2,6 C 9,8 C
14.05.2012 00:41 9,8 C 61 % 1026,8 hPa 0,0 l/m 3,6 km/h (1 Bft) S-SO 157 2,6 C 9,8 C
14.05.2012 00:46 9,6 C 61 % 1026,9 hPa 0,0 l/m 3,2 km/h (1 Bft) SO 135 2,5 C 9,6 C
14.05.2012 00:51 9,5 C 61 % 1026,7 hPa 0,0 l/m 4,3 km/h (1 Bft) SO 135 2,4 C 9,5 C
14.05.2012 00:56 9,4 C 61 % 1026,7 hPa 0,0 l/m 0,0 km/h (0 Bft) S-SO 157 2,3 C 9,4 C
14.05.2012 01:01 9,4 C 61 % 1026,6 hPa 0,0 l/m 1,4 km/h (1 Bft) SO 135 2,3 C 9,4 C
14.05.2012 01:06 9,3 C 61 % 1026,5 hPa 0,0 l/m 3,2 km/h (1 Bft) S-SO 157 2,2 C 9,3 C
14.05.2012 01:11 9,2 C 62 % 1026,5 hPa 0,0 l/m 4,3 km/h (1 Bft) S-SW 202 2,3 C 9,2 C
14.05.2012 01:16 9,1 C 62 % 1026,6 hPa 0,0 l/m 3,6 km/h (1 Bft) S-SO 157 2,2 C 9,1 C
14.05.2012 01:21 9,0 C 62 % 1026,5 hPa 0,0 l/m 3,2 km/h (1 Bft) SO 135 2,1 C 9,0 C
14.05.2012 01:26 8,9 C 62 % 1026,5 hPa 0,0 l/m 3,6 km/h (1 Bft) SO 135 2,0 C 8,9 C
14.05.2012 01:31 8,9 C 63 % 1026,5 hPa 0,0 l/m 3,2 km/h (1 Bft) SO 135 2,2 C 8,9 C
14.05.2012 01:36 8,9 C 63 % 1026,4 hPa 0,0 l/m 4,0 km/h (1 Bft) SO 135 2,2 C 8,9 C
14.05.2012 01:41 8,9 C 63 % 1026,4 hPa 0,0 l/m 4,3 km/h (1 Bft) S 180 2,2 C 8,9 C
14.05.2012 01:46 8,8 C 62 % 1026,3 hPa 0,0 l/m 2,5 km/h (1 Bft) S-SO 157 1,9 C 8,8 C
14.05.2012 01:51 8,6 C 62 % 1026,4 hPa 0,0 l/m 2,5 km/h (1 Bft) S 180 1,7 C 8,6 C
14.05.2012 01:56 8,6 C 62 % 1026,3 hPa 0,0 l/m 2,9 km/h (1 Bft) S-SO 157 1,7 C 8,6 C
14.05.2012 02:01 8,5 C 62 % 1026,3 hPa 0,0 l/m 1,4 km/h (1 Bft) S 180 1,6 C 8,5 C
14.05.2012 02:06 8,4 C 62 % 1026,2 hPa 0,0 l/m 3,2 km/h (1 Bft) S-SO 157 1,6 C 8,4 C
14.05.2012 02:11 8,4 C 62 % 1026,2 hPa 0,0 l/m 4,7 km/h (1 Bft) S-SO 157 1,6 C 8,0 C
14.05.2012 02:16 8,3 C 62 % 1026,2 hPa 0,0 l/m 2,5 km/h (1 Bft) SO 135 1,5 C 8,3 C
14.05.2012 02:21 8,2 C 63 % 1026,2 hPa 0,0 l/m 0,0 km/h (0 Bft) S-SO 157 1,6 C 8,2 C
14.05.2012 02:26 8,1 C 63 % 1026,1 hPa 0,0 l/m 0,0 km/h (0 Bft) S 180 1,5 C 8,1 C
14.05.2012 02:31 8,1 C 63 % 1026,0 hPa 0,0 l/m 4,0 km/h (1 Bft) S 180 1,5 C 8,1 C
14.05.2012 02:36 7,9 C 63 % 1026,0 hPa 0,0 l/m 0,0 km/h (0 Bft) S-SO 157 1,3 C 7,9 C
14.05.2012 02:41 7,9 C 64 % 1025,8 hPa 0,0 l/m 3,6 km/h (1 Bft) S-SO 157 1,5 C 7,9 C
14.05.2012 02:46 7,8 C 64 % 1025,8 hPa 0,0 l/m 4,7 km/h (1 Bft) SO 135 1,4 C 7,4 C
14.05.2012 02:51 7,8 C 65 % 1025,9 hPa 0,0 l/m 2,2 km/h (1 Bft) S-SO 157 1,6 C 7,8 C
14.05.2012 02:56 7,6 C 65 % 1025,8 hPa 0,0 l/m 0,0 km/h (0 Bft) SO 135 1,5 C 7,6 C
14.05.2012 03:01 7,6 C 65 % 1025,8 hPa 0,0 l/m 0,0 km/h (0 Bft) SO 135 1,5 C 7,6 C
14.05.2012 03:06 7,4 C 65 % 1025,8 hPa 0,0 l/m 0,0 km/h (0 Bft) SO 135 1,3 C 7,4 C
14.05.2012 03:11 7,3 C 66 % 1025,6 hPa 0,0 l/m 2,2 km/h (1 Bft) SO 135 1,4 C 7,3 C
14.05.2012 03:16 7,3 C 66 % 1025,6 hPa 0,0 l/m 3,2 km/h (1 Bft) SO 135 1,4 C 7,3 C
14.05.2012 03:21 7,2 C 66 % 1025,6 hPa 0,0 l/m 3,6 km/h (1 Bft) S-SO 157 1,3 C 7,2 C
14.05.2012 03:26 7,1 C 67 % 1025,5 hPa 0,0 l/m 2,2 km/h (1 Bft) S-SO 157 1,4 C 7,1 C
14.05.2012 03:31 7,0 C 67 % 1025,3 hPa 0,0 l/m 1,8 km/h (1 Bft) SO 135 1,3 C 7,0 C
14.05.2012 03:36 6,9 C 67 % 1025,3 hPa 0,0 l/m 3,2 km/h (1 Bft) SO 135 1,2 C 6,9 C
14.05.2012 03:41 6,8 C 67 % 1025,2 hPa 0,0 l/m 2,9 km/h (1 Bft) SO 135 1,1 C 6,8 C
14.05.2012 03:46 6,8 C 67 % 1025,2 hPa 0,0 l/m 2,5 km/h (1 Bft) S-SO 157 1,1 C 6,8 C
14.05.2012 03:51 6,7 C 67 % 1025,2 hPa 0,0 l/m 0,0 km/h (0 Bft) S 180 1,0 C 6,7 C
14.05.2012 03:56 6,6 C 67 % 1025,1 hPa 0,0 l/m 2,2 km/h (1 Bft) SO 135 0,9 C 6,6 C
14.05.2012 04:01 6,6 C 67 % 1025,1 hPa 0,0 l/m 3,2 km/h (1 Bft) S-SO 157 0,9 C 6,6 C
14.05.2012 04:06 6,5 C 67 % 1025,1 hPa 0,0 l/m 2,5 km/h (1 Bft) SO 135 0,8 C 6,5 C
14.05.2012 04:11 6,5 C 67 % 1024,9 hPa 0,0 l/m 0,0 km/h (0 Bft) S-SO 157 0,8 C 6,5 C
14.05.2012 04:16 6,5 C 68 % 1025,1 hPa 0,0 l/m 1,4 km/h (1 Bft) S-SO 157 1,0 C 6,5 C
14.05.2012 04:21 6,4 C 68 % 1024,9 hPa 0,0 l/m 3,6 km/h (1 Bft) S 180 0,9 C 6,4 C
14.05.2012 04:26 6,4 C 68 % 1024,9 hPa 0,0 l/m 0,0 km/h (0 Bft) S-SO 157 0,9 C 6,4 C
14.05.2012 04:31 6,5 C 68 % 1024,8 hPa 0,0 l/m 0,0 km/h (0 Bft) S-SO 157 1,0 C 6,5 C
14.05.2012 04:36 6,4 C 68 % 1024,7 hPa 0,0 l/m 0,0 km/h (0 Bft) SO 135 0,9 C 6,4 C
14.05.2012 04:41 6,3 C 69 % 1024,7 hPa 0,0 l/m 4,0 km/h (1 Bft) S-SO 157 1,0 C 6,3 C
14.05.2012 04:46 6,3 C 69 % 1024,6 hPa 0,0 l/m 0,0 km/h (0 Bft) S-SO 157 1,0 C 6,3 C
14.05.2012 04:51 6,2 C 69 % 1024,6 hPa 0,0 l/m 4,3 km/h (1 Bft) S-SO 157 0,9 C 6,2 C
14.05.2012 04:56 6,1 C 69 % 1024,6 hPa 0,0 l/m 4,7 km/h (1 Bft) SO 135 0,8 C 5,4 C
14.05.2012 05:01 6,1 C 69 % 1024,4 hPa 0,0 l/m 0,0 km/h (0 Bft) S 180 0,8 C 6,1 C
14.05.2012 05:06 6,1 C 69 % 1024,4 hPa 0,0 l/m 3,2 km/h (1 Bft) SO 135 0,8 C 6,1 C
14.05.2012 05:11 5,9 C 70 % 1024,4 hPa 0,0 l/m 0,0 km/h (0 Bft) S 180 0,9 C 5,9 C
14.05.2012 05:16 5,9 C 70 % 1024,4 hPa 0,0 l/m 4,3 km/h (1 Bft) S-SO 157 0,9 C 5,9 C
14.05.2012 05:21 5,9 C 70 % 1024,4 hPa 0,0 l/m 3,6 km/h (1 Bft) SO 135 0,9 C 5,9 C
14.05.2012 05:26 5,9 C 70 % 1024,4 hPa 0,0 l/m 5,4 km/h (1 Bft) S-SO 157 0,9 C 5,0 C
14.05.2012 05:31 5,8 C 71 % 1024,4 hPa 0,0 l/m 0,0 km/h (0 Bft) S-SO 157 1,0 C 5,8 C
14.05.2012 05:36 5,8 C 71 % 1024,4 hPa 0,0 l/m 2,9 km/h (1 Bft) S-SO 157 1,0 C 5,8 C
14.05.2012 05:41 5,8 C 71 % 1024,4 hPa 0,0 l/m 4,3 km/h (1 Bft) SO 135 1,0 C 5,8 C
14.05.2012 05:46 5,8 C 71 % 1024,4 hPa 0,0 l/m 9,7 km/h (2 Bft) S-SO 157 1,0 C 3,7 C
14.05.2012 05:51 5,8 C 71 % 1024,3 hPa 0,0 l/m 4,7 km/h (1 Bft) S 180 1,0 C 5,1 C
14.05.2012 05:56 5,9 C 72 % 1024,4 hPa 0,0 l/m 7,6 km/h (2 Bft) S 180 1,2 C 4,3 C
14.05.2012 06:01 6,1 C 72 % 1024,3 hPa 0,0 l/m 0,0 km/h (0 Bft) SO 135 1,4 C 6,1 C
14.05.2012 06:06 6,2 C 71 % 1024,2 hPa 0,0 l/m 7,9 km/h (2 Bft) S-SW 202 1,3 C 4,6 C
14.05.2012 06:11 6,2 C 71 % 1024,2 hPa 0,0 l/m 4,3 km/h (1 Bft) S-SO 157 1,3 C 6,2 C
14.05.2012 06:16 6,3 C 71 % 1024,3 hPa 0,0 l/m 4,3 km/h (1 Bft) S-SO 157 1,4 C 6,3 C
14.05.2012 06:21 6,6 C 71 % 1024,3 hPa 0,0 l/m 4,3 km/h (1 Bft) S-SO 157 1,7 C 6,6 C
14.05.2012 06:26 7,0 C 71 % 1024,4 hPa 0,0 l/m 3,2 km/h (1 Bft) SO 135 2,1 C 7,0 C
14.05.2012 06:31 7,3 C 70 % 1024,3 hPa 0,0 l/m 1,4 km/h (1 Bft) SO 135 2,2 C 7,3 C
14.05.2012 06:36 7,6 C 69 % 1024,3 hPa 0,0 l/m 3,2 km/h (1 Bft) S 180 2,3 C 7,6 C
14.05.2012 06:41 7,8 C 69 % 1024,1 hPa 0,0 l/m 1,8 km/h (1 Bft) S-SO 157 2,5 C 7,8 C
14.05.2012 06:46 7,9 C 69 % 1024,3 hPa 0,0 l/m 0,0 km/h (0 Bft) S 180 2,6 C 7,9 C
14.05.2012 06:51 7,9 C 68 % 1024,2 hPa 0,0 l/m 1,8 km/h (1 Bft) S-SO 157 2,4 C 7,9 C
14.05.2012 06:56 8,1 C 68 % 1024,2 hPa 0,0 l/m 6,5 km/h (2 Bft) S-SO 157 2,6 C 7,1 C
14.05.2012 07:01 8,4 C 68 % 1024,3 hPa 0,0 l/m 7,9 km/h (2 Bft) S 180 2,8 C 7,2 C
14.05.2012 07:06 8,4 C 67 % 1024,2 hPa 0,0 l/m 4,3 km/h (1 Bft) S-SO 157 2,6 C 8,4 C
14.05.2012 07:11 8,6 C 67 % 1024,3 hPa 0,0 l/m 10,1 km/h (2 Bft) S 180 2,8 C 6,9 C
14.05.2012 07:16 8,8 C 67 % 1024,3 hPa 0,0 l/m 6,1 km/h (2 Bft) S-SO 157 3,0 C 8,1 C
14.05.2012 07:21 8,9 C 67 % 1024,3 hPa 0,0 l/m 6,5 km/h (2 Bft) SW 225 3,1 C 8,1 C
14.05.2012 07:26 9,1 C 67 % 1024,4 hPa 0,0 l/m 2,5 km/h (1 Bft) S-SO 157 3,3 C 9,1 C
14.05.2012 07:31 9,3 C 67 % 1024,4 hPa 0,0 l/m 3,2 km/h (1 Bft) S-SO 157 3,5 C 9,3 C
14.05.2012 07:36 9,6 C 67 % 1024,4 hPa 0,0 l/m 8,3 km/h (2 Bft) S 180 3,8 C 8,5 C
14.05.2012 07:41 9,9 C 66 % 1024,4 hPa 0,0 l/m 9,4 km/h (2 Bft) S 180 3,9 C 8,6 C
14.05.2012 07:46 9,9 C 66 % 1024,5 hPa 0,0 l/m 7,6 km/h (2 Bft) S 180 3,9 C 9,0 C
14.05.2012 07:51 10,2 C 65 % 1024,2 hPa 0,0 l/m 7,6 km/h (2 Bft) S 180 3,9 C 10,2 C
14.05.2012 07:56 10,3 C 65 % 1024,3 hPa 0,0 l/m 4,7 km/h (1 Bft) S-SO 157 4,0 C 10,3 C
14.05.2012 08:01 10,5 C 66 % 1024,2 hPa 0,0 l/m 8,3 km/h (2 Bft) S-SW 202 4,4 C 10,5 C
14.05.2012 08:06 10,7 C 65 % 1024,2 hPa 0,0 l/m 5,8 km/h (2 Bft) S 180 4,4 C 10,7 C
14.05.2012 08:11 10,9 C 65 % 1024,3 hPa 0,0 l/m 6,1 km/h (2 Bft) S-SW 202 4,6 C 10,9 C
14.05.2012 08:16 11,3 C 64 % 1024,1 hPa 0,0 l/m 4,7 km/h (1 Bft) S 180 4,7 C 11,3 C
14.05.2012 08:21 11,4 C 64 % 1024,0 hPa 0,0 l/m 9,4 km/h (2 Bft) O-SO 112 4,8 C 11,4 C
14.05.2012 08:26 11,6 C 63 % 1024,0 hPa 0,0 l/m 5,4 km/h (1 Bft) S-SO 157 4,8 C 11,6 C
14.05.2012 08:31 11,8 C 63 % 1024,0 hPa 0,0 l/m 11,5 km/h (2 Bft) S-SO 157 5,0 C 11,8 C
14.05.2012 08:36 11,9 C 62 % 1023,9 hPa 0,0 l/m 12,6 km/h (3 Bft) S-SO 157 4,9 C 11,9 C
14.05.2012 08:41 11,9 C 61 % 1023,9 hPa 0,0 l/m 3,6 km/h (1 Bft) S-SO 157 4,6 C 11,9 C
14.05.2012 08:46 12,1 C 60 % 1023,9 hPa 0,0 l/m 12,2 km/h (2 Bft) S 180 4,6 C 12,1 C
14.05.2012 08:51 12,3 C 60 % 1023,9 hPa 0,0 l/m 19,8 km/h (3 Bft) S 180 4,8 C 12,3 C
14.05.2012 08:56 12,4 C 58 % 1023,9 hPa 0,0 l/m 5,0 km/h (1 Bft) O-SO 112 4,4 C 12,4 C
14.05.2012 09:01 12,5 C 58 % 1023,9 hPa 0,0 l/m 13,3 km/h (3 Bft) S 180 4,5 C 12,5 C
14.05.2012 09:06 12,6 C 57 % 1023,9 hPa 0,0 l/m 7,2 km/h (2 Bft) S 180 4,3 C 12,6 C
14.05.2012 09:11 12,8 C 55 % 1023,8 hPa 0,0 l/m 11,2 km/h (2 Bft) S-SO 157 4,0 C 12,8 C
14.05.2012 09:16 12,8 C 54 % 1023,9 hPa 0,0 l/m 6,1 km/h (2 Bft) N-NW 337 3,7 C 12,8 C
14.05.2012 09:21 12,9 C 53 % 1023,9 hPa 0,0 l/m 17,6 km/h (3 Bft) S-SW 202 3,6 C 12,9 C
14.05.2012 09:26 12,9 C 52 % 1023,7 hPa 0,0 l/m 10,4 km/h (2 Bft) S-SW 202 3,3 C 12,9 C
14.05.2012 09:31 13,1 C 51 % 1023,5 hPa 0,0 l/m 14,8 km/h (3 Bft) S-SW 202 3,2 C 13,1 C
14.05.2012 09:36 13,2 C 51 % 1023,6 hPa 0,0 l/m 8,6 km/h (2 Bft) S-SW 202 3,3 C 13,2 C
14.05.2012 09:41 13,3 C 50 % 1023,5 hPa 0,0 l/m 13,3 km/h (3 Bft) S 180 3,1 C 13,3 C
14.05.2012 09:46 13,4 C 48 % 1023,4 hPa 0,0 l/m 13,3 km/h (3 Bft) SW 225 2,6 C 13,4 C
14.05.2012 09:51 13,5 C 48 % 1023,5 hPa 0,0 l/m 13,0 km/h (3 Bft) S 180 2,7 C 13,5 C
14.05.2012 09:56 13,5 C 48 % 1023,4 hPa 0,0 l/m 6,5 km/h (2 Bft) S-SW 202 2,7 C 13,5 C
14.05.2012 10:01 13,7 C 48 % 1023,4 hPa 0,0 l/m 6,8 km/h (2 Bft) SW 225 2,9 C 13,7 C
14.05.2012 10:06 13,8 C 47 % 1023,3 hPa 0,0 l/m 13,0 km/h (3 Bft) W-SW 247 2,7 C 13,8 C
14.05.2012 10:11 13,9 C 47 % 1023,3 hPa 0,0 l/m 11,2 km/h (2 Bft) S-SO 157 2,8 C 13,9 C
14.05.2012 10:16 14,0 C 47 % 1023,3 hPa 0,0 l/m 6,1 km/h (2 Bft) S 180 2,9 C 14,0 C
14.05.2012 10:21 14,1 C 47 % 1023,3 hPa 0,0 l/m 13,0 km/h (3 Bft) S-SO 157 3,0 C 14,1 C
14.05.2012 10:26 14,3 C 46 % 1023,1 hPa 0,0 l/m 13,7 km/h (3 Bft) S-SO 157 2,8 C 14,3 C
14.05.2012 10:31 14,3 C 45 % 1023,0 hPa 0,0 l/m 24,1 km/h (4 Bft) S-SW 202 2,5 C 14,3 C
14.05.2012 10:36 14,3 C 45 % 1022,9 hPa 0,0 l/m 20,9 km/h (4 Bft) S-SW 202 2,5 C 14,3 C
14.05.2012 10:41 14,3 C 45 % 1022,8 hPa 0,0 l/m 20,2 km/h (4 Bft) S-SW 202 2,5 C 14,3 C
14.05.2012 10:46 14,4 C 44 % 1022,7 hPa 0,0 l/m 13,7 km/h (3 Bft) S 180 2,3 C 14,4 C
14.05.2012 10:51 14,4 C 44 % 1022,6 hPa 0,0 l/m 14,4 km/h (3 Bft) W 270 2,3 C 14,4 C
14.05.2012 10:56 14,6 C 44 % 1022,6 hPa 0,0 l/m 11,9 km/h (2 Bft) SW 225 2,5 C 14,6 C
14.05.2012 11:01 14,7 C 45 % 1022,5 hPa 0,0 l/m 11,2 km/h (2 Bft) SW 225 2,9 C 14,7 C
14.05.2012 11:06 14,9 C 44 % 1022,5 hPa 0,0 l/m 8,6 km/h (2 Bft) SO 135 2,8 C 14,9 C
14.05.2012 11:11 14,9 C 44 % 1022,5 hPa 0,0 l/m 13,0 km/h (3 Bft) S 180 2,8 C 14,9 C
14.05.2012 11:16 14,9 C 44 % 1022,4 hPa 0,0 l/m 14,4 km/h (3 Bft) W-SW 247 2,8 C 14,9 C
14.05.2012 11:21 14,9 C 43 % 1022,4 hPa 0,0 l/m 8,6 km/h (2 Bft) S 180 2,4 C 14,9 C
14.05.2012 11:26 14,9 C 43 % 1022,3 hPa 0,0 l/m 10,4 km/h (2 Bft) S 180 2,4 C 14,9 C
14.05.2012 11:31 15,0 C 43 % 1022,2 hPa 0,0 l/m 8,3 km/h (2 Bft) SW 225 2,5 C 15,0 C
14.05.2012 11:36 15,2 C 43 % 1022,2 hPa 0,0 l/m 5,0 km/h (1 Bft) S 180 2,7 C 15,2 C
14.05.2012 11:41 15,3 C 43 % 1022,2 hPa 0,0 l/m 4,7 km/h (1 Bft) SO 135 2,8 C 15,3 C
14.05.2012 11:46 15,4 C 42 % 1022,1 hPa 0,0 l/m 8,3 km/h (2 Bft) SO 135 2,6 C 15,4 C
14.05.2012 11:51 15,6 C 42 % 1022,0 hPa 0,0 l/m 18,0 km/h (3 Bft) S 180 2,7 C 15,6 C
14.05.2012 11:56 15,6 C 41 % 1022,0 hPa 0,0 l/m 14,4 km/h (3 Bft) O-SO 112 2,4 C 15,6 C
14.05.2012 12:01 15,6 C 41 % 1021,8 hPa 0,0 l/m 20,2 km/h (4 Bft) SO 135 2,4 C 15,6 C
14.05.2012 12:06 15,8 C 41 % 1021,8 hPa 0,0 l/m 9,4 km/h (2 Bft) S 180 2,6 C 15,8 C
14.05.2012 12:11 15,9 C 41 % 1021,6 hPa 0,0 l/m 15,5 km/h (3 Bft) SO 135 2,7 C 15,9 C
14.05.2012 12:16 15,9 C 41 % 1021,7 hPa 0,0 l/m 13,0 km/h (3 Bft) S 180 2,7 C 15,9 C
14.05.2012 12:21 15,9 C 40 % 1021,4 hPa 0,0 l/m 9,0 km/h (2 Bft) SW 225 2,3 C 15,9 C
14.05.2012 12:26 15,9 C 41 % 1021,3 hPa 0,0 l/m 5,8 km/h (2 Bft) S 180 2,7 C 15,9 C
14.05.2012 12:31 16,1 C 41 % 1021,3 hPa 0,0 l/m 11,9 km/h (2 Bft) S-SO 157 2,8 C 16,1 C
14.05.2012 12:36 16,2 C 40 % 1021,2 hPa 0,0 l/m 5,8 km/h (2 Bft) S-SO 157 2,6 C 16,2 C
14.05.2012 12:41 16,3 C 41 % 1021,2 hPa 0,0 l/m 24,1 km/h (4 Bft) SO 135 3,0 C 16,3 C
14.05.2012 12:46 16,4 C 40 % 1021,1 hPa 0,0 l/m 6,8 km/h (2 Bft) SO 135 2,8 C 16,4 C
14.05.2012 12:51 16,6 C 40 % 1021,0 hPa 0,0 l/m 6,1 km/h (2 Bft) S 180 2,9 C 16,6 C
14.05.2012 12:56 16,7 C 40 % 1021,0 hPa 0,0 l/m 7,6 km/h (2 Bft) S-SO 157 3,0 C 16,7 C
14.05.2012 13:01 16,9 C 40 % 1020,9 hPa 0,0 l/m 14,4 km/h (3 Bft) S 180 3,2 C 16,9 C
14.05.2012 13:06 16,9 C 39 % 1020,8 hPa 0,0 l/m 9,0 km/h (2 Bft) S-SW 202 2,9 C 16,9 C
14.05.2012 13:11 16,9 C 39 % 1020,7 hPa 0,0 l/m 13,3 km/h (3 Bft) S-SW 202 2,9 C 16,9 C
14.05.2012 13:16 17,1 C 39 % 1020,6 hPa 0,0 l/m 13,3 km/h (3 Bft) SO 135 3,0 C 17,1 C
14.05.2012 13:21 17,1 C 38 % 1020,7 hPa 0,0 l/m 13,7 km/h (3 Bft) S-SW 202 2,7 C 17,1 C
14.05.2012 13:26 17,2 C 38 % 1020,7 hPa 0,0 l/m 8,6 km/h (2 Bft) S-SW 202 2,8 C 17,2 C
14.05.2012 13:31 17,3 C 38 % 1020,8 hPa 0,0 l/m 18,7 km/h (3 Bft) S 180 2,9 C 17,3 C
14.05.2012 13:36 17,2 C 37 % 1020,6 hPa 0,0 l/m 12,6 km/h (3 Bft) SW 225 2,4 C 17,2 C
14.05.2012 13:41 17,2 C 38 % 1020,5 hPa 0,0 l/m 24,1 km/h (4 Bft) S-SW 202 2,8 C 17,2 C
14.05.2012 13:46 17,3 C 38 % 1020,4 hPa 0,0 l/m 16,9 km/h (3 Bft) S-SO 157 2,9 C 17,3 C
14.05.2012 13:51 17,4 C 37 % 1020,3 hPa 0,0 l/m 11,9 km/h (2 Bft) S-SW 202 2,6 C 17,4 C
14.05.2012 13:56 17,4 C 37 % 1020,3 hPa 0,0 l/m 14,0 km/h (3 Bft) W 270 2,6 C 17,4 C
14.05.2012 14:01 17,4 C 37 % 1020,1 hPa 0,0 l/m 16,6 km/h (3 Bft) S 180 2,6 C 17,4 C
14.05.2012 14:06 17,5 C 37 % 1020,0 hPa 0,0 l/m 12,2 km/h (2 Bft) S-SW 202 2,7 C 17,5 C
14.05.2012 14:11 17,6 C 37 % 1019,9 hPa 0,0 l/m 12,2 km/h (2 Bft) S 180 2,7 C 17,6 C
14.05.2012 14:16 17,7 C 37 % 1019,9 hPa 0,0 l/m 7,2 km/h (2 Bft) S-SO 157 2,8 C 17,7 C
14.05.2012 14:21 17,9 C 37 % 1019,8 hPa 0,0 l/m 17,3 km/h (3 Bft) S 180 3,0 C 17,9 C
14.05.2012 14:26 17,9 C 36 % 1019,8 hPa 0,0 l/m 6,1 km/h (2 Bft) S 180 2,6 C 17,9 C
14.05.2012 14:31 17,9 C 36 % 1019,6 hPa 0,0 l/m 17,6 km/h (3 Bft) S-SW 202 2,6 C 17,9 C
14.05.2012 14:36 17,9 C 36 % 1019,6 hPa 0,0 l/m 18,7 km/h (3 Bft) S 180 2,6 C 17,9 C
14.05.2012 14:41 17,9 C 36 % 1019,5 hPa 0,0 l/m 25,2 km/h (4 Bft) S-SO 157 2,6 C 17,9 C
14.05.2012 14:46 18,1 C 36 % 1019,5 hPa 0,0 l/m 10,8 km/h (2 Bft) S-SW 202 2,8 C 18,1 C
14.05.2012 14:51 18,1 C 36 % 1019,3 hPa 0,0 l/m 7,6 km/h (2 Bft) W-NW 292 2,8 C 18,1 C
14.05.2012 14:56 18,2 C 36 % 1019,3 hPa 0,0 l/m 13,0 km/h (3 Bft) S-SW 202 2,9 C 18,2 C
14.05.2012 15:01 18,3 C 36 % 1019,3 hPa 0,0 l/m 12,6 km/h (3 Bft) SO 135 3,0 C 18,3 C
14.05.2012 15:06 18,4 C 36 % 1019,4 hPa 0,0 l/m 9,7 km/h (2 Bft) S-SW 202 3,1 C 18,4 C
14.05.2012 15:11 18,5 C 36 % 1019,2 hPa 0,0 l/m 8,6 km/h (2 Bft) S 180 3,2 C 18,5 C
14.05.2012 15:16 18,6 C 36 % 1019,2 hPa 0,0 l/m 16,6 km/h (3 Bft) SW 225 3,2 C 18,6 C
14.05.2012 15:21 18,5 C 36 % 1019,1 hPa 0,0 l/m 25,9 km/h (4 Bft) S-SW 202 3,2 C 18,5 C
14.05.2012 15:26 18,4 C 36 % 1019,0 hPa 0,0 l/m 27,0 km/h (4 Bft) SW 225 3,1 C 18,4 C
14.05.2012 15:31 18,5 C 37 % 1019,0 hPa 0,0 l/m 9,7 km/h (2 Bft) S 180 3,5 C 18,5 C
14.05.2012 15:36 18,7 C 37 % 1018,9 hPa 0,0 l/m 6,8 km/h (2 Bft) S-SO 157 3,7 C 18,7 C
14.05.2012 15:41 18,8 C 37 % 1018,6 hPa 0,0 l/m 10,1 km/h (2 Bft) S-SW 202 3,8 C 18,8 C
14.05.2012 15:46 18,9 C 36 % 1018,5 hPa 0,0 l/m 18,4 km/h (3 Bft) SW 225 3,5 C 18,9 C
14.05.2012 15:51 18,8 C 36 % 1018,6 hPa 0,0 l/m 15,5 km/h (3 Bft) SW 225 3,4 C 18,8 C
14.05.2012 15:56 18,8 C 36 % 1018,5 hPa 0,0 l/m 9,0 km/h (2 Bft) S 180 3,4 C 18,8 C
14.05.2012 16:01 18,8 C 36 % 1018,5 hPa 0,0 l/m 13,3 km/h (3 Bft) SW 225 3,4 C 18,8 C
14.05.2012 16:06 18,9 C 36 % 1018,5 hPa 0,0 l/m 6,5 km/h (2 Bft) SW 225 3,5 C 18,9 C
14.05.2012 16:11 18,9 C 36 % 1018,4 hPa 0,0 l/m 6,1 km/h (2 Bft) S-SW 202 3,5 C 18,9 C
14.05.2012 16:16 18,9 C 36 % 1018,4 hPa 0,0 l/m 7,2 km/h (2 Bft) S-SW 202 3,5 C 18,9 C
14.05.2012 16:21 19,0 C 36 % 1018,4 hPa 0,0 l/m 11,2 km/h (2 Bft) SW 225 3,6 C 19,0 C
14.05.2012 16:26 19,0 C 36 % 1018,2 hPa 0,0 l/m 13,0 km/h (3 Bft) W-SW 247 3,6 C 19,0 C
14.05.2012 16:31 19,0 C 36 % 1018,1 hPa 0,0 l/m 16,9 km/h (3 Bft) SW 225 3,6 C 19,0 C
14.05.2012 16:36 19,0 C 35 % 1018,0 hPa 0,0 l/m 15,1 km/h (3 Bft) S 180 3,2 C 19,0 C
14.05.2012 16:41 19,0 C 36 % 1018,1 hPa 0,0 l/m 10,1 km/h (2 Bft) W 270 3,6 C 19,0 C
14.05.2012 16:46 19,1 C 36 % 1018,0 hPa 0,0 l/m 14,0 km/h (3 Bft) SW 225 3,7 C 19,1 C
14.05.2012 16:51 19,0 C 35 % 1017,9 hPa 0,0 l/m 14,8 km/h (3 Bft) S 180 3,2 C 19,0 C
14.05.2012 16:56 19,1 C 35 % 1017,9 hPa 0,0 l/m 11,9 km/h (2 Bft) W-SW 247 3,3 C 19,1 C
14.05.2012 17:01 19,2 C 35 % 1017,8 hPa 0,0 l/m 9,7 km/h (2 Bft) S 180 3,4 C 19,2 C
14.05.2012 17:06 19,2 C 35 % 1017,8 hPa 0,0 l/m 19,1 km/h (3 Bft) S-SO 157 3,4 C 19,2 C
14.05.2012 17:11 18,9 C 35 % 1017,9 hPa 0,0 l/m 6,1 km/h (2 Bft) SW 225 3,1 C 18,9 C
14.05.2012 17:16 18,9 C 36 % 1017,8 hPa 0,0 l/m 7,6 km/h (2 Bft) W 270 3,5 C 18,9 C
14.05.2012 17:21 19,0 C 36 % 1017,7 hPa 0,0 l/m 12,2 km/h (2 Bft) S-SW 202 3,6 C 19,0 C
14.05.2012 17:26 19,1 C 36 % 1017,6 hPa 0,0 l/m 25,6 km/h (4 Bft) S 180 3,7 C 19,1 C
14.05.2012 17:31 19,1 C 36 % 1017,6 hPa 0,0 l/m 7,9 km/h (2 Bft) W-SW 247 3,7 C 19,1 C
14.05.2012 17:36 19,2 C 36 % 1017,5 hPa 0,0 l/m 10,1 km/h (2 Bft) S-SW 202 3,8 C 19,2 C
14.05.2012 17:41 19,2 C 35 % 1017,4 hPa 0,0 l/m 16,2 km/h (3 Bft) S-SO 157 3,4 C 19,2 C
14.05.2012 17:46 19,1 C 35 % 1017,4 hPa 0,0 l/m 12,2 km/h (2 Bft) S-SW 202 3,3 C 19,1 C
14.05.2012 17:51 19,1 C 35 % 1017,2 hPa 0,0 l/m 11,2 km/h (2 Bft) SW 225 3,3 C 19,1 C
14.05.2012 17:56 18,9 C 35 % 1017,4 hPa 0,0 l/m 11,2 km/h (2 Bft) S-SW 202 3,1 C 18,9 C
14.05.2012 18:01 18,8 C 36 % 1017,3 hPa 0,0 l/m 14,8 km/h (3 Bft) S-SO 157 3,4 C 18,8 C
14.05.2012 18:06 18,6 C 36 % 1017,0 hPa 0,0 l/m 4,7 km/h (1 Bft) S 180 3,2 C 18,6 C
14.05.2012 18:11 18,5 C 37 % 1017,1 hPa 0,0 l/m 10,8 km/h (2 Bft) S-SW 202 3,5 C 18,5 C
14.05.2012 18:16 18,5 C 37 % 1017,1 hPa 0,0 l/m 15,1 km/h (3 Bft) S-SO 157 3,5 C 18,5 C
14.05.2012 18:21 18,4 C 37 % 1017,0 hPa 0,0 l/m 18,7 km/h (3 Bft) S-SW 202 3,5 C 18,4 C
14.05.2012 18:26 18,2 C 37 % 1017,0 hPa 0,0 l/m 14,0 km/h (3 Bft) S-SW 202 3,3 C 18,2 C
14.05.2012 18:31 18,1 C 37 % 1016,8 hPa 0,0 l/m 7,2 km/h (2 Bft) S 180 3,2 C 18,1 C
14.05.2012 18:36 17,9 C 37 % 1017,0 hPa 0,0 l/m 11,5 km/h (2 Bft) SW 225 3,0 C 17,9 C
14.05.2012 18:41 17,9 C 37 % 1016,9 hPa 0,0 l/m 2,2 km/h (1 Bft) S 180 3,0 C 17,9 C
14.05.2012 18:46 17,9 C 38 % 1016,9 hPa 0,0 l/m 3,2 km/h (1 Bft) S-SW 202 3,4 C 17,9 C
14.05.2012 18:51 17,8 C 38 % 1016,7 hPa 0,0 l/m 9,0 km/h (2 Bft) S-SO 157 3,3 C 17,8 C
14.05.2012 18:56 17,6 C 39 % 1016,7 hPa 0,0 l/m 7,2 km/h (2 Bft) S-SW 202 3,5 C 17,6 C
14.05.2012 19:01 17,5 C 39 % 1016,8 hPa 0,0 l/m 9,4 km/h (2 Bft) S-SW 202 3,4 C 17,5 C
14.05.2012 19:06 17,3 C 39 % 1016,8 hPa 0,0 l/m 6,8 km/h (2 Bft) S-SW 202 3,2 C 17,3 C
14.05.2012 19:11 17,1 C 40 % 1016,7 hPa 0,0 l/m 6,5 km/h (2 Bft) S 180 3,4 C 17,1 C
14.05.2012 19:16 16,9 C 40 % 1016,7 hPa 0,0 l/m 8,6 km/h (2 Bft) S-SO 157 3,2 C 16,9 C
14.05.2012 19:21 16,9 C 40 % 1016,8 hPa 0,0 l/m 5,0 km/h (1 Bft) S 180 3,2 C 16,9 C
14.05.2012 19:26 16,8 C 41 % 1016,7 hPa 0,0 l/m 11,9 km/h (2 Bft) S 180 3,5 C 16,8 C
14.05.2012 19:31 16,6 C 41 % 1016,8 hPa 0,0 l/m 3,6 km/h (1 Bft) S-SW 202 3,3 C 16,6 C
14.05.2012 19:36 16,5 C 41 % 1016,4 hPa 0,0 l/m 7,2 km/h (2 Bft) S 180 3,2 C 16,5 C
14.05.2012 19:41 16,4 C 42 % 1016,5 hPa 0,0 l/m 3,2 km/h (1 Bft) S 180 3,5 C 16,4 C
14.05.2012 19:46 16,3 C 42 % 1016,6 hPa 0,0 l/m 2,9 km/h (1 Bft) S-SO 157 3,4 C 16,3 C
14.05.2012 19:51 16,2 C 42 % 1016,5 hPa 0,0 l/m 1,4 km/h (1 Bft) S-SO 157 3,3 C 16,2 C
14.05.2012 19:56 16,2 C 43 % 1016,6 hPa 0,0 l/m 1,8 km/h (1 Bft) SO 135 3,6 C 16,2 C
14.05.2012 20:01 16,1 C 43 % 1016,6 hPa 0,0 l/m 1,4 km/h (1 Bft) S-SO 157 3,5 C 16,1 C
14.05.2012 20:06 15,9 C 44 % 1016,5 hPa 0,0 l/m 4,0 km/h (1 Bft) S-SO 157 3,7 C 15,9 C
14.05.2012 20:11 15,9 C 44 % 1016,5 hPa 0,0 l/m 6,8 km/h (2 Bft) S-SO 157 3,7 C 15,9 C
14.05.2012 20:16 15,8 C 44 % 1016,6 hPa 0,0 l/m 3,2 km/h (1 Bft) S-SO 157 3,6 C 15,8 C
14.05.2012 20:21 15,6 C 45 % 1016,5 hPa 0,0 l/m 4,0 km/h (1 Bft) S 180 3,7 C 15,6 C
14.05.2012 20:26 15,4 C 45 % 1016,4 hPa 0,0 l/m 3,6 km/h (1 Bft) S-SO 157 3,5 C 15,4 C
14.05.2012 20:31 15,3 C 45 % 1016,4 hPa 0,0 l/m 4,0 km/h (1 Bft) SO 135 3,4 C 15,3 C
14.05.2012 20:36 15,3 C 45 % 1016,3 hPa 0,0 l/m 2,9 km/h (1 Bft) SO 135 3,4 C 15,3 C
14.05.2012 20:41 15,2 C 45 % 1016,4 hPa 0,0 l/m 2,2 km/h (1 Bft) SO 135 3,4 C 15,2 C
14.05.2012 20:46 15,1 C 45 % 1016,4 hPa 0,0 l/m 5,0 km/h (1 Bft) SO 135 3,3 C 15,1 C
14.05.2012 20:51 14,9 C 45 % 1016,4 hPa 0,0 l/m 3,6 km/h (1 Bft) S-SO 157 3,1 C 14,9 C
14.05.2012 20:56 14,9 C 45 % 1016,4 hPa 0,0 l/m 1,8 km/h (1 Bft) SO 135 3,1 C 14,9 C
14.05.2012 21:01 14,9 C 45 % 1016,4 hPa 0,0 l/m 3,6 km/h (1 Bft) SO 135 3,1 C 14,9 C
14.05.2012 21:06 14,7 C 46 % 1016,4 hPa 0,0 l/m 3,2 km/h (1 Bft) SO 135 3,2 C 14,7 C
14.05.2012 21:11 14,5 C 46 % 1016,5 hPa 0,0 l/m 0,0 km/h (0 Bft) SO 135 3,0 C 14,5 C
14.05.2012 21:16 14,4 C 46 % 1016,4 hPa 0,0 l/m 1,8 km/h (1 Bft) S-SO 157 2,9 C 14,4 C
14.05.2012 21:21 14,3 C 46 % 1016,3 hPa 0,0 l/m 5,4 km/h (1 Bft) SO 135 2,8 C 14,3 C
14.05.2012 21:26 14,2 C 46 % 1016,3 hPa 0,0 l/m 4,0 km/h (1 Bft) O-SO 112 2,8 C 14,2 C
14.05.2012 21:31 14,1 C 46 % 1016,2 hPa 0,0 l/m 2,5 km/h (1 Bft) O-SO 112 2,7 C 14,1 C
14.05.2012 21:36 14,0 C 47 % 1016,2 hPa 0,0 l/m 3,6 km/h (1 Bft) O-NO 67 2,9 C 14,0 C
14.05.2012 21:41 13,9 C 47 % 1016,1 hPa 0,0 l/m 4,0 km/h (1 Bft) S-SO 157 2,8 C 13,9 C
14.05.2012 21:46 13,8 C 47 % 1016,0 hPa 0,0 l/m 1,4 km/h (1 Bft) SO 135 2,7 C 13,8 C
14.05.2012 21:51 13,7 C 47 % 1016,0 hPa 0,0 l/m 3,2 km/h (1 Bft) SO 135 2,6 C 13,7 C
14.05.2012 21:56 13,6 C 48 % 1016,0 hPa 0,0 l/m 3,6 km/h (1 Bft) O-SO 112 2,8 C 13,6 C
14.05.2012 22:01 13,3 C 49 % 1016,0 hPa 0,0 l/m 3,2 km/h (1 Bft) O-SO 112 2,8 C 13,3 C
14.05.2012 22:06 13,0 C 49 % 1015,9 hPa 0,0 l/m 1,4 km/h (1 Bft) O 90 2,5 C 13,0 C
14.05.2012 22:11 12,8 C 50 % 1015,8 hPa 0,0 l/m 0,0 km/h (0 Bft) O-SO 112 2,6 C 12,8 C
14.05.2012 22:16 12,6 C 50 % 1015,8 hPa 0,0 l/m 2,2 km/h (1 Bft) O 90 2,5 C 12,6 C
14.05.2012 22:21 12,5 C 51 % 1015,8 hPa 0,0 l/m 1,4 km/h (1 Bft) O-SO 112 2,6 C 12,5 C
14.05.2012 22:26 12,4 C 51 % 1015,8 hPa 0,0 l/m 1,8 km/h (1 Bft) O-SO 112 2,6 C 12,4 C
14.05.2012 22:31 12,3 C 52 % 1015,7 hPa 0,0 l/m 0,0 km/h (0 Bft) O-SO 112 2,7 C 12,3 C
14.05.2012 22:36 12,3 C 52 % 1015,7 hPa 0,0 l/m 0,0 km/h (0 Bft) O-SO 112 2,7 C 12,3 C
14.05.2012 22:41 12,2 C 52 % 1015,7 hPa 0,0 l/m 1,4 km/h (1 Bft) O-SO 112 2,6 C 12,2 C
14.05.2012 22:46 12,1 C 53 % 1015,7 hPa 0,0 l/m 0,0 km/h (0 Bft) O 90 2,8 C 12,1 C
14.05.2012 22:51 12,0 C 53 % 1015,7 hPa 0,0 l/m 3,2 km/h (1 Bft) O-SO 112 2,7 C 12,0 C
14.05.2012 22:56 11,9 C 53 % 1015,6 hPa 0,0 l/m 1,4 km/h (1 Bft) O-SO 112 2,6 C 11,9 C
14.05.2012 23:01 11,8 C 54 % 1015,6 hPa 0,0 l/m 3,2 km/h (1 Bft) O-NO 67 2,8 C 11,8 C
14.05.2012 23:06 11,6 C 54 % 1015,6 hPa 0,0 l/m 2,9 km/h (1 Bft) O 90 2,6 C 11,6 C
14.05.2012 23:11 11,5 C 55 % 1015,6 hPa 0,0 l/m 5,8 km/h (2 Bft) O 90 2,8 C 11,5 C
14.05.2012 23:16 11,3 C 55 % 1015,4 hPa 0,0 l/m 3,6 km/h (1 Bft) O-SO 112 2,6 C 11,3 C
14.05.2012 23:21 11,2 C 56 % 1015,3 hPa 0,0 l/m 4,7 km/h (1 Bft) O-SO 112 2,8 C 11,2 C
14.05.2012 23:26 11,2 C 56 % 1015,3 hPa 0,0 l/m 0,0 km/h (0 Bft) O 90 2,8 C 11,2 C
14.05.2012 23:31 11,1 C 56 % 1015,3 hPa 0,0 l/m 2,2 km/h (1 Bft) O-SO 112 2,7 C 11,1 C
14.05.2012 23:36 11,0 C 57 % 1015,3 hPa 0,0 l/m 1,4 km/h (1 Bft) O-SO 112 2,8 C 11,0 C
14.05.2012 23:41 10,9 C 57 % 1015,2 hPa 0,0 l/m 0,0 km/h (0 Bft) O-SO 112 2,7 C 10,9 C
14.05.2012 23:46 10,9 C 57 % 1015,1 hPa 0,0 l/m 0,0 km/h (0 Bft) O-SO 112 2,7 C 10,9 C
14.05.2012 23:51 10,9 C 58 % 1015,2 hPa 0,0 l/m 1,4 km/h (1 Bft) O-SO 112 3,0 C 10,9 C
14.05.2012 23:56 10,8 C 58 % 1015,2 hPa 0,0 l/m 0,0 km/h (0 Bft) O 90 2,9 C 10,8 C
_ Min-Zeit 05:31 16:36 23:46 - 00:56 - - 04:06 05:46
Minimum _ 5,8 C 35 % 1015,1 hPa - 0,0 km/h (0 Bft) - - 0,8 C 3,7 C
_ Max-Zeit 17:01 05:56 00:06 00:01 15:26 - - 08:31 17:01
Maximum _ 19,2 C 72 % 1027,3 hPa 0,0 l/m 27,0 km/h
SW (4 Bft)
- - 5,0 C 19,2 C
Durchschnitt _ 13,0 C 51 % 1021,2 hPa #0,0 l/m 7,2 km/h (2 Bft) S-SO - 2,7 C 13,0 C
(c) by David Heller